sensor_id;sensor_type;location;lat;lon;timestamp;P1;durP1;ratioP1;P2;durP2;ratioP2
19617;SDS011;9956;51.006;13.670;2022-11-13T00:04:49;15.90;;;14.13;;
19617;SDS011;9956;51.006;13.670;2022-11-13T00:10:08;15.05;;;12.52;;
19617;SDS011;9956;51.006;13.670;2022-11-13T00:15:27;15.43;;;13.30;;
19617;SDS011;9956;51.006;13.670;2022-11-13T00:20:46;15.32;;;13.40;;
19617;SDS011;9956;51.006;13.670;2022-11-13T00:26:06;17.08;;;14.68;;
19617;SDS011;9956;51.006;13.670;2022-11-13T00:31:27;18.33;;;15.27;;
19617;SDS011;9956;51.006;13.670;2022-11-13T00:36:47;20.63;;;16.58;;
19617;SDS011;9956;51.006;13.670;2022-11-13T00:42:06;17.75;;;15.38;;
19617;SDS011;9956;51.006;13.670;2022-11-13T00:47:24;17.15;;;13.23;;
19617;SDS011;9956;51.006;13.670;2022-11-13T00:52:43;13.65;;;12.20;;
19617;SDS011;9956;51.006;13.670;2022-11-13T00:58:02;13.00;;;11.63;;
19617;SDS011;9956;51.006;13.670;2022-11-13T01:03:22;17.90;;;11.73;;
19617;SDS011;9956;51.006;13.670;2022-11-13T01:08:41;14.10;;;11.70;;
19617;SDS011;9956;51.006;13.670;2022-11-13T01:19:41;13.93;;;12.43;;
19617;SDS011;9956;51.006;13.670;2022-11-13T01:25:00;16.50;;;13.00;;
19617;SDS011;9956;51.006;13.670;2022-11-13T01:30:19;14.75;;;11.85;;
19617;SDS011;9956;51.006;13.670;2022-11-13T01:35:38;16.65;;;13.40;;
19617;SDS011;9956;51.006;13.670;2022-11-13T01:40:57;19.60;;;12.55;;
19617;SDS011;9956;51.006;13.670;2022-11-13T01:51:38;14.75;;;11.68;;
19617;SDS011;9956;51.006;13.670;2022-11-13T01:56:57;13.95;;;10.73;;
19617;SDS011;9956;51.006;13.670;2022-11-13T02:02:17;18.50;;;11.95;;
19617;SDS011;9956;51.006;13.670;2022-11-13T02:07:36;16.73;;;12.95;;
19617;SDS011;9956;51.006;13.670;2022-11-13T02:12:55;15.25;;;12.68;;
19617;SDS011;9956;51.006;13.670;2022-11-13T02:18:14;15.38;;;12.07;;
19617;SDS011;9956;51.006;13.670;2022-11-13T02:23:37;13.18;;;11.60;;
19617;SDS011;9956;51.006;13.670;2022-11-13T02:29:32;15.20;;;12.50;;
19617;SDS011;9956;51.006;13.670;2022-11-13T02:34:51;15.18;;;12.25;;
19617;SDS011;9956;51.006;13.670;2022-11-13T02:40:10;18.30;;;12.63;;
19617;SDS011;9956;51.006;13.670;2022-11-13T02:45:29;17.77;;;12.85;;
19617;SDS011;9956;51.006;13.670;2022-11-13T02:50:48;15.20;;;11.95;;
19617;SDS011;9956;51.006;13.670;2022-11-13T02:56:07;15.05;;;12.45;;
19617;SDS011;9956;51.006;13.670;2022-11-13T03:01:26;17.27;;;12.55;;
19617;SDS011;9956;51.006;13.670;2022-11-13T03:06:45;16.23;;;12.90;;
19617;SDS011;9956;51.006;13.670;2022-11-13T03:12:04;17.63;;;13.55;;
19617;SDS011;9956;51.006;13.670;2022-11-13T03:17:29;14.95;;;12.07;;
19617;SDS011;9956;51.006;13.670;2022-11-13T03:22:49;14.32;;;11.95;;
19617;SDS011;9956;51.006;13.670;2022-11-13T03:28:08;15.23;;;11.75;;
19617;SDS011;9956;51.006;13.670;2022-11-13T03:33:27;20.58;;;12.85;;
19617;SDS011;9956;51.006;13.670;2022-11-13T03:38:46;18.08;;;13.55;;
19617;SDS011;9956;51.006;13.670;2022-11-13T03:44:05;16.95;;;12.63;;
19617;SDS011;9956;51.006;13.670;2022-11-13T03:49:23;21.55;;;13.32;;
19617;SDS011;9956;51.006;13.670;2022-11-13T03:54:42;14.27;;;11.75;;
19617;SDS011;9956;51.006;13.670;2022-11-13T04:00:01;15.18;;;11.98;;
19617;SDS011;9956;51.006;13.670;2022-11-13T04:05:24;13.10;;;10.98;;
19617;SDS011;9956;51.006;13.670;2022-11-13T04:10:43;15.50;;;11.73;;
19617;SDS011;9956;51.006;13.670;2022-11-13T04:16:03;15.40;;;12.48;;
19617;SDS011;9956;51.006;13.670;2022-11-13T04:21:23;18.13;;;13.55;;
19617;SDS011;9956;51.006;13.670;2022-11-13T04:26:42;19.75;;;14.70;;
19617;SDS011;9956;51.006;13.670;2022-11-13T04:32:01;17.20;;;11.73;;
19617;SDS011;9956;51.006;13.670;2022-11-13T04:37:19;17.92;;;12.60;;
19617;SDS011;9956;51.006;13.670;2022-11-13T04:42:38;15.23;;;11.05;;
19617;SDS011;9956;51.006;13.670;2022-11-13T04:48:07;14.52;;;11.02;;
19617;SDS011;9956;51.006;13.670;2022-11-13T04:53:26;14.70;;;11.18;;
19617;SDS011;9956;51.006;13.670;2022-11-13T04:58:44;12.70;;;10.05;;
19617;SDS011;9956;51.006;13.670;2022-11-13T05:04:03;18.52;;;10.02;;
19617;SDS011;9956;51.006;13.670;2022-11-13T05:09:22;15.00;;;9.40;;
19617;SDS011;9956;51.006;13.670;2022-11-13T05:14:41;10.73;;;8.85;;
19617;SDS011;9956;51.006;13.670;2022-11-13T05:20:00;12.13;;;8.70;;
19617;SDS011;9956;51.006;13.670;2022-11-13T05:25:19;11.95;;;9.35;;
19617;SDS011;9956;51.006;13.670;2022-11-13T05:30:38;11.43;;;9.45;;
19617;SDS011;9956;51.006;13.670;2022-11-13T05:36:00;12.05;;;8.88;;
19617;SDS011;9956;51.006;13.670;2022-11-13T05:41:29;14.63;;;10.07;;
19617;SDS011;9956;51.006;13.670;2022-11-13T05:46:48;10.40;;;8.45;;
19617;SDS011;9956;51.006;13.670;2022-11-13T05:52:07;9.35;;;7.88;;
19617;SDS011;9956;51.006;13.670;2022-11-13T05:57:26;10.63;;;8.48;;
19617;SDS011;9956;51.006;13.670;2022-11-13T06:02:45;11.80;;;7.60;;
19617;SDS011;9956;51.006;13.670;2022-11-13T06:08:04;9.68;;;8.02;;
19617;SDS011;9956;51.006;13.670;2022-11-13T06:13:23;14.00;;;8.63;;
19617;SDS011;9956;51.006;13.670;2022-11-13T06:18:42;10.20;;;7.45;;
19617;SDS011;9956;51.006;13.670;2022-11-13T06:24:02;11.10;;;8.13;;
19617;SDS011;9956;51.006;13.670;2022-11-13T06:29:21;12.63;;;8.65;;
19617;SDS011;9956;51.006;13.670;2022-11-13T06:34:40;10.88;;;8.77;;
19617;SDS011;9956;51.006;13.670;2022-11-13T06:39:59;12.80;;;9.40;;
19617;SDS011;9956;51.006;13.670;2022-11-13T06:45:18;11.40;;;9.70;;
19617;SDS011;9956;51.006;13.670;2022-11-13T06:50:37;11.20;;;8.10;;
19617;SDS011;9956;51.006;13.670;2022-11-13T06:55:56;13.23;;;9.00;;
19617;SDS011;9956;51.006;13.670;2022-11-13T07:01:17;11.07;;;8.68;;
19617;SDS011;9956;51.006;13.670;2022-11-13T07:06:37;10.75;;;8.75;;
19617;SDS011;9956;51.006;13.670;2022-11-13T07:11:56;13.82;;;9.13;;
19617;SDS011;9956;51.006;13.670;2022-11-13T07:17:15;12.00;;;9.25;;
19617;SDS011;9956;51.006;13.670;2022-11-13T07:22:34;11.25;;;8.13;;
19617;SDS011;9956;51.006;13.670;2022-11-13T07:27:53;13.63;;;10.13;;
19617;SDS011;9956;51.006;13.670;2022-11-13T07:33:12;9.90;;;7.10;;
19617;SDS011;9956;51.006;13.670;2022-11-13T07:38:31;11.48;;;8.23;;
19617;SDS011;9956;51.006;13.670;2022-11-13T07:43:50;13.85;;;12.23;;
19617;SDS011;9956;51.006;13.670;2022-11-13T07:49:09;17.52;;;13.60;;
19617;SDS011;9956;51.006;13.670;2022-11-13T07:54:28;14.02;;;11.57;;
19617;SDS011;9956;51.006;13.670;2022-11-13T08:00:05;9.23;;;8.07;;
19617;SDS011;9956;51.006;13.670;2022-11-13T08:05:24;10.95;;;7.93;;
19617;SDS011;9956;51.006;13.670;2022-11-13T08:10:43;10.20;;;9.13;;
19617;SDS011;9956;51.006;13.670;2022-11-13T08:16:02;8.35;;;6.78;;
19617;SDS011;9956;51.006;13.670;2022-11-13T08:21:22;6.60;;;5.85;;
19617;SDS011;9956;51.006;13.670;2022-11-13T08:26:41;8.65;;;7.05;;
19617;SDS011;9956;51.006;13.670;2022-11-13T08:32:00;9.50;;;7.88;;
19617;SDS011;9956;51.006;13.670;2022-11-13T08:37:19;7.78;;;6.50;;
19617;SDS011;9956;51.006;13.670;2022-11-13T08:42:38;12.30;;;10.15;;
19617;SDS011;9956;51.006;13.670;2022-11-13T08:48:00;11.00;;;9.48;;
19617;SDS011;9956;51.006;13.670;2022-11-13T08:53:20;10.25;;;9.18;;
19617;SDS011;9956;51.006;13.670;2022-11-13T08:58:39;12.02;;;9.57;;
19617;SDS011;9956;51.006;13.670;2022-11-13T09:03:58;10.27;;;9.10;;
19617;SDS011;9956;51.006;13.670;2022-11-13T09:09:17;10.32;;;7.85;;
19617;SDS011;9956;51.006;13.670;2022-11-13T09:14:37;9.75;;;7.75;;
19617;SDS011;9956;51.006;13.670;2022-11-13T09:19:56;10.82;;;8.52;;
19617;SDS011;9956;51.006;13.670;2022-11-13T09:25:15;8.73;;;7.43;;
19617;SDS011;9956;51.006;13.670;2022-11-13T09:30:36;8.55;;;7.47;;
19617;SDS011;9956;51.006;13.670;2022-11-13T09:35:55;10.60;;;9.50;;
19617;SDS011;9956;51.006;13.670;2022-11-13T09:41:25;8.75;;;7.75;;
19617;SDS011;9956;51.006;13.670;2022-11-13T09:46:50;9.10;;;7.90;;
19617;SDS011;9956;51.006;13.670;2022-11-13T09:52:15;7.65;;;6.95;;
19617;SDS011;9956;51.006;13.670;2022-11-13T09:57:39;8.00;;;7.03;;
19617;SDS011;9956;51.006;13.670;2022-11-13T10:08:46;7.28;;;6.53;;
19617;SDS011;9956;51.006;13.670;2022-11-13T10:14:16;7.90;;;7.10;;
19617;SDS011;9956;51.006;13.670;2022-11-13T10:19:39;8.43;;;7.07;;
19617;SDS011;9956;51.006;13.670;2022-11-13T10:25:13;8.02;;;7.30;;
19617;SDS011;9956;51.006;13.670;2022-11-13T10:30:33;8.80;;;7.90;;
19617;SDS011;9956;51.006;13.670;2022-11-13T10:36:13;7.97;;;7.28;;
19617;SDS011;9956;51.006;13.670;2022-11-13T10:41:50;7.55;;;6.72;;
19617;SDS011;9956;51.006;13.670;2022-11-13T10:47:14;8.82;;;7.65;;
19617;SDS011;9956;51.006;13.670;2022-11-13T10:52:43;8.30;;;7.50;;
19617;SDS011;9956;51.006;13.670;2022-11-13T10:58:10;8.73;;;7.85;;
19617;SDS011;9956;51.006;13.670;2022-11-13T11:03:32;9.23;;;8.32;;
19617;SDS011;9956;51.006;13.670;2022-11-13T11:08:51;7.97;;;7.18;;
19617;SDS011;9956;51.006;13.670;2022-11-13T11:19:29;8.10;;;7.30;;
19617;SDS011;9956;51.006;13.670;2022-11-13T11:25:13;8.23;;;6.93;;
19617;SDS011;9956;51.006;13.670;2022-11-13T11:30:38;8.98;;;8.07;;
19617;SDS011;9956;51.006;13.670;2022-11-13T11:47:46;9.38;;;8.23;;
19617;SDS011;9956;51.006;13.670;2022-11-13T11:53:11;10.52;;;9.20;;
19617;SDS011;9956;51.006;13.670;2022-11-13T11:58:46;10.50;;;9.43;;
19617;SDS011;9956;51.006;13.670;2022-11-13T12:21:23;10.13;;;9.13;;
19617;SDS011;9956;51.006;13.670;2022-11-13T12:44:26;11.93;;;9.88;;
19617;SDS011;9956;51.006;13.670;2022-11-13T12:49:57;11.90;;;10.30;;
19617;SDS011;9956;51.006;13.670;2022-11-13T12:55:24;11.35;;;9.90;;
19617;SDS011;9956;51.006;13.670;2022-11-13T13:00:53;12.80;;;10.23;;
19617;SDS011;9956;51.006;13.670;2022-11-13T13:12:12;17.20;;;14.25;;
19617;SDS011;9956;51.006;13.670;2022-11-13T13:18:03;13.90;;;11.95;;
19617;SDS011;9956;51.006;13.670;2022-11-13T13:23:36;13.02;;;10.15;;
19617;SDS011;9956;51.006;13.670;2022-11-13T13:29:00;12.30;;;9.80;;
19617;SDS011;9956;51.006;13.670;2022-11-13T13:40:01;13.55;;;10.65;;
19617;SDS011;9956;51.006;13.670;2022-11-13T13:51:15;13.02;;;10.38;;
19617;SDS011;9956;51.006;13.670;2022-11-13T13:56:44;13.57;;;11.65;;
19617;SDS011;9956;51.006;13.670;2022-11-13T14:02:12;13.95;;;11.43;;
19617;SDS011;9956;51.006;13.670;2022-11-13T14:07:32;13.23;;;11.20;;
19617;SDS011;9956;51.006;13.670;2022-11-13T14:12:54;14.10;;;11.77;;
19617;SDS011;9956;51.006;13.670;2022-11-13T14:18:14;13.95;;;12.55;;
19617;SDS011;9956;51.006;13.670;2022-11-13T14:23:42;13.35;;;11.95;;
19617;SDS011;9956;51.006;13.670;2022-11-13T14:29:04;14.38;;;12.88;;
19617;SDS011;9956;51.006;13.670;2022-11-13T14:34:23;15.98;;;13.43;;
19617;SDS011;9956;51.006;13.670;2022-11-13T14:39:42;15.57;;;12.82;;
19617;SDS011;9956;51.006;13.670;2022-11-13T14:51:21;16.50;;;12.45;;
19617;SDS011;9956;51.006;13.670;2022-11-13T14:56:44;16.83;;;14.38;;
19617;SDS011;9956;51.006;13.670;2022-11-13T15:02:03;16.65;;;14.85;;
19617;SDS011;9956;51.006;13.670;2022-11-13T15:12:46;19.33;;;15.43;;
19617;SDS011;9956;51.006;13.670;2022-11-13T15:18:07;22.20;;;16.77;;
19617;SDS011;9956;51.006;13.670;2022-11-13T15:23:31;23.27;;;17.27;;
19617;SDS011;9956;51.006;13.670;2022-11-13T15:28:49;26.38;;;17.95;;
19617;SDS011;9956;51.006;13.670;2022-11-13T15:34:12;27.13;;;20.60;;
19617;SDS011;9956;51.006;13.670;2022-11-13T15:39:37;31.23;;;24.83;;
19617;SDS011;9956;51.006;13.670;2022-11-13T15:44:56;26.35;;;18.13;;
19617;SDS011;9956;51.006;13.670;2022-11-13T15:50:15;28.67;;;20.70;;
19617;SDS011;9956;51.006;13.670;2022-11-13T15:55:34;29.73;;;21.85;;
19617;SDS011;9956;51.006;13.670;2022-11-13T16:00:53;28.25;;;19.08;;
19617;SDS011;9956;51.006;13.670;2022-11-13T16:06:29;33.22;;;22.73;;
19617;SDS011;9956;51.006;13.670;2022-11-13T16:11:48;32.25;;;22.77;;
19617;SDS011;9956;51.006;13.670;2022-11-13T16:17:14;29.88;;;21.88;;
19617;SDS011;9956;51.006;13.670;2022-11-13T16:22:37;32.63;;;23.42;;
19617;SDS011;9956;51.006;13.670;2022-11-13T16:27:56;37.72;;;23.88;;
19617;SDS011;9956;51.006;13.670;2022-11-13T16:33:15;33.70;;;23.27;;
19617;SDS011;9956;51.006;13.670;2022-11-13T16:38:34;37.17;;;25.17;;
19617;SDS011;9956;51.006;13.670;2022-11-13T16:43:53;40.53;;;27.35;;
19617;SDS011;9956;51.006;13.670;2022-11-13T16:49:12;38.90;;;26.80;;
19617;SDS011;9956;51.006;13.670;2022-11-13T16:54:36;41.85;;;26.85;;
19617;SDS011;9956;51.006;13.670;2022-11-13T16:59:55;42.97;;;27.17;;
19617;SDS011;9956;51.006;13.670;2022-11-13T17:05:14;43.80;;;28.40;;
19617;SDS011;9956;51.006;13.670;2022-11-13T17:10:33;42.72;;;28.25;;
19617;SDS011;9956;51.006;13.670;2022-11-13T17:15:54;44.13;;;28.48;;
19617;SDS011;9956;51.006;13.670;2022-11-13T17:21:22;44.45;;;29.73;;
19617;SDS011;9956;51.006;13.670;2022-11-13T17:26:43;47.28;;;30.80;;
19617;SDS011;9956;51.006;13.670;2022-11-13T17:32:03;55.50;;;36.03;;
19617;SDS011;9956;51.006;13.670;2022-11-13T17:37:22;52.92;;;33.75;;
19617;SDS011;9956;51.006;13.670;2022-11-13T17:42:40;53.22;;;35.05;;
19617;SDS011;9956;51.006;13.670;2022-11-13T17:47:59;52.65;;;35.95;;
19617;SDS011;9956;51.006;13.670;2022-11-13T17:53:18;54.05;;;35.33;;
19617;SDS011;9956;51.006;13.670;2022-11-13T17:58:37;55.83;;;36.30;;
19617;SDS011;9956;51.006;13.670;2022-11-13T18:03:58;49.28;;;33.55;;
19617;SDS011;9956;51.006;13.670;2022-11-13T18:09:17;60.75;;;38.85;;
19617;SDS011;9956;51.006;13.670;2022-11-13T18:14:36;63.17;;;40.88;;
19617;SDS011;9956;51.006;13.670;2022-11-13T18:19:55;66.40;;;41.05;;
19617;SDS011;9956;51.006;13.670;2022-11-13T18:25:14;65.47;;;41.75;;
19617;SDS011;9956;51.006;13.670;2022-11-13T18:30:33;59.05;;;40.90;;
19617;SDS011;9956;51.006;13.670;2022-11-13T18:35:54;65.03;;;39.83;;
19617;SDS011;9956;51.006;13.670;2022-11-13T18:41:14;57.67;;;39.25;;
19617;SDS011;9956;51.006;13.670;2022-11-13T18:46:34;54.63;;;35.67;;
19617;SDS011;9956;51.006;13.670;2022-11-13T18:51:53;55.92;;;36.90;;
19617;SDS011;9956;51.006;13.670;2022-11-13T18:57:12;58.47;;;39.55;;
19617;SDS011;9956;51.006;13.670;2022-11-13T19:02:30;57.88;;;38.70;;
19617;SDS011;9956;51.006;13.670;2022-11-13T19:07:49;58.28;;;39.67;;
19617;SDS011;9956;51.006;13.670;2022-11-13T19:13:08;55.17;;;36.10;;
19617;SDS011;9956;51.006;13.670;2022-11-13T19:18:27;53.90;;;38.05;;
19617;SDS011;9956;51.006;13.670;2022-11-13T19:23:46;50.60;;;37.15;;
19617;SDS011;9956;51.006;13.670;2022-11-13T19:29:05;53.55;;;36.85;;
19617;SDS011;9956;51.006;13.670;2022-11-13T19:34:25;57.42;;;40.45;;
19617;SDS011;9956;51.006;13.670;2022-11-13T19:39:43;56.15;;;39.63;;
19617;SDS011;9956;51.006;13.670;2022-11-13T19:45:02;52.78;;;37.65;;
19617;SDS011;9956;51.006;13.670;2022-11-13T19:50:21;55.30;;;40.33;;
19617;SDS011;9956;51.006;13.670;2022-11-13T19:55:40;55.47;;;38.33;;
19617;SDS011;9956;51.006;13.670;2022-11-13T20:01:06;51.42;;;38.58;;
19617;SDS011;9956;51.006;13.670;2022-11-13T20:06:26;53.03;;;40.58;;
19617;SDS011;9956;51.006;13.670;2022-11-13T20:11:46;49.45;;;36.45;;
19617;SDS011;9956;51.006;13.670;2022-11-13T20:17:05;52.33;;;37.53;;
19617;SDS011;9956;51.006;13.670;2022-11-13T20:22:23;54.28;;;39.83;;
19617;SDS011;9956;51.006;13.670;2022-11-13T20:27:42;44.40;;;35.38;;
19617;SDS011;9956;51.006;13.670;2022-11-13T20:33:01;51.53;;;37.70;;
19617;SDS011;9956;51.006;13.670;2022-11-13T20:38:20;51.20;;;37.72;;
19617;SDS011;9956;51.006;13.670;2022-11-13T20:43:39;53.15;;;36.65;;
19617;SDS011;9956;51.006;13.670;2022-11-13T20:48:58;49.92;;;36.00;;
19617;SDS011;9956;51.006;13.670;2022-11-13T20:54:17;39.47;;;31.27;;
19617;SDS011;9956;51.006;13.670;2022-11-13T20:59:36;39.35;;;29.38;;
19617;SDS011;9956;51.006;13.670;2022-11-13T21:04:55;33.45;;;26.67;;
19617;SDS011;9956;51.006;13.670;2022-11-13T21:10:14;36.45;;;28.48;;
19617;SDS011;9956;51.006;13.670;2022-11-13T21:15:35;34.22;;;26.50;;
19617;SDS011;9956;51.006;13.670;2022-11-13T21:20:55;31.13;;;25.50;;
19617;SDS011;9956;51.006;13.670;2022-11-13T21:26:21;30.90;;;26.10;;
19617;SDS011;9956;51.006;13.670;2022-11-13T21:31:40;30.02;;;24.15;;
19617;SDS011;9956;51.006;13.670;2022-11-13T21:36:59;31.48;;;23.58;;
19617;SDS011;9956;51.006;13.670;2022-11-13T21:42:18;29.23;;;22.92;;
19617;SDS011;9956;51.006;13.670;2022-11-13T21:47:37;28.08;;;23.10;;
19617;SDS011;9956;51.006;13.670;2022-11-13T21:52:56;27.70;;;22.40;;
19617;SDS011;9956;51.006;13.670;2022-11-13T21:58:15;26.67;;;21.67;;
19617;SDS011;9956;51.006;13.670;2022-11-13T22:03:35;26.42;;;21.65;;
19617;SDS011;9956;51.006;13.670;2022-11-13T22:14:35;23.95;;;19.02;;
19617;SDS011;9956;51.006;13.670;2022-11-13T22:19:54;28.33;;;22.50;;
19617;SDS011;9956;51.006;13.670;2022-11-13T22:25:13;25.77;;;19.40;;
19617;SDS011;9956;51.006;13.670;2022-11-13T22:30:32;27.10;;;20.77;;
19617;SDS011;9956;51.006;13.670;2022-11-13T22:36:06;27.55;;;22.80;;
19617;SDS011;9956;51.006;13.670;2022-11-13T22:41:31;33.03;;;28.50;;
19617;SDS011;9956;51.006;13.670;2022-11-13T22:46:51;28.38;;;22.63;;
19617;SDS011;9956;51.006;13.670;2022-11-13T22:52:11;54.67;;;48.50;;
19617;SDS011;9956;51.006;13.670;2022-11-13T22:57:30;50.72;;;45.00;;
19617;SDS011;9956;51.006;13.670;2022-11-13T23:02:49;66.15;;;45.45;;
19617;SDS011;9956;51.006;13.670;2022-11-13T23:08:08;100.32;;;63.60;;
19617;SDS011;9956;51.006;13.670;2022-11-13T23:13:26;62.63;;;48.78;;
19617;SDS011;9956;51.006;13.670;2022-11-13T23:18:45;81.68;;;40.30;;
19617;SDS011;9956;51.006;13.670;2022-11-13T23:24:05;60.53;;;34.38;;
19617;SDS011;9956;51.006;13.670;2022-11-13T23:29:25;53.33;;;39.50;;
19617;SDS011;9956;51.006;13.670;2022-11-13T23:34:43;79.25;;;38.72;;
19617;SDS011;9956;51.006;13.670;2022-11-13T23:40:02;78.82;;;38.75;;
19617;SDS011;9956;51.006;13.670;2022-11-13T23:45:22;79.03;;;37.10;;
19617;SDS011;9956;51.006;13.670;2022-11-13T23:50:41;101.03;;;44.03;;
19617;SDS011;9956;51.006;13.670;2022-11-13T23:56:00;51.53;;;33.30;;
